Time;durP1;ratioP1;P1;durP2;ratioP2;P2;SDS_P1;SDS_P2;PMS_P1;PMS_P2;Temp;Humidity;BMP_temperature;BMP_pressure;BME280_temperature;BME280_humidity;BME280_pressure;Samples;Min_cycle;Max_cycle;Signal;HPM_P1;HPM_P2
2022/01/24 00:00:54;;;;;;;8.20;3.75;;;;;;;-2.10;59.04;102001.75;1759407;79;21169;-54
2022/01/24 00:03:21;;;;;;;8.95;4.35;;;;;;;-2.06;59.40;102007.31;1762126;79;21058;-55
2022/01/24 00:05:49;;;;;;;9.05;4.00;;;;;;;-2.01;59.30;102010.33;1753617;79;21118;-54
2022/01/24 00:08:17;;;;;;;8.45;3.80;;;;;;;-2.02;59.19;102011.19;1753584;79;21062;-55
2022/01/24 00:10:46;;;;;;;9.03;4.50;;;;;;;-2.03;59.08;102012.91;1759190;79;21121;-55
2022/01/24 00:26:53;;;;;;;7.08;3.80;;;;;;;-2.33;59.49;102026.69;1759628;79;21047;-54
2022/01/24 00:29:22;;;;;;;9.60;4.28;;;;;;;-2.43;59.79;102031.83;1731307;80;21032;-54
2022/01/24 00:31:49;;;;;;;9.88;5.40;;;;;;;-2.47;60.21;102037.86;1752006;79;21349;-54
2022/01/24 00:34:16;;;;;;;9.43;4.60;;;;;;;-2.52;60.20;102038.70;1752858;79;21144;-54
2022/01/24 00:36:46;;;;;;;17.07;5.12;;;;;;;-2.60;60.52;102043.86;1754130;79;21125;-55
2022/01/24 00:39:12;;;;;;;12.93;4.97;;;;;;;-2.70;60.83;102042.98;1751516;79;21060;-54
2022/01/24 00:47:09;;;;;;;11.53;5.95;;;;;;;-3.08;61.80;102033.44;1751560;79;21089;-55
2022/01/24 00:54:43;;;;;;;11.65;5.75;;;;;;;-3.26;62.67;102047.53;1761111;79;21063;-55
2022/01/24 00:57:11;;;;;;;11.88;6.37;;;;;;;-3.32;62.73;102058.68;1767470;79;21058;-55
2022/01/24 00:59:38;;;;;;;10.93;6.30;;;;;;;-3.34;62.83;102053.11;1764448;79;21906;-55
2022/01/24 01:02:04;;;;;;;10.55;5.08;;;;;;;-3.39;62.99;102059.08;1746308;79;21051;-56
2022/01/24 01:07:33;;;;;;;12.47;6.00;;;;;;;-3.36;62.79;102065.97;1754188;79;21082;-54
2022/01/24 01:18:14;;;;;;;9.15;4.62;;;;;;;-3.65;62.42;102081.23;1763877;79;21581;-54
2022/01/24 01:23:19;;;;;;;8.63;4.00;;;;;;;-3.78;62.69;102090.17;1757643;79;21064;-54
2022/01/24 01:25:47;;;;;;;10.28;4.85;;;;;;;-3.85;63.09;102097.81;1734591;79;21112;-54
2022/01/24 01:28:15;;;;;;;9.75;4.78;;;;;;;-3.88;63.16;102098.67;1759858;79;21153;-54
2022/01/24 01:30:46;;;;;;;9.75;5.00;;;;;;;-3.96;62.98;102092.17;1759834;79;21120;-54
2022/01/24 01:33:28;;;;;;;13.18;4.42;;;;;;;-4.05;63.32;102090.83;1754689;80;21054;-54
2022/01/24 01:57:20;;;;;;;6.90;3.75;;;;;;;-4.87;64.98;102104.60;1744569;80;20996;-55
2022/01/24 01:59:47;;;;;;;6.78;3.37;;;;;;;-4.94;65.32;102109.20;1751082;79;21750;-55
2022/01/24 02:02:13;;;;;;;9.53;4.08;;;;;;;-5.05;65.59;102108.66;1753114;79;20984;-54
2022/01/24 02:04:41;;;;;;;7.30;3.90;;;;;;;-5.06;65.82;102115.94;1743313;80;21153;-55
2022/01/24 02:07:14;;;;;;;9.05;4.35;;;;;;;-5.05;65.80;102120.20;1763760;79;21934;-54
2022/01/24 02:09:43;;;;;;;8.60;3.85;;;;;;;-5.09;65.88;102119.73;1749592;79;21538;-55
2022/01/24 02:12:10;;;;;;;9.95;5.47;;;;;;;-5.06;65.67;102121.07;1739181;80;21595;-55
2022/01/24 02:14:42;;;;;;;10.55;5.45;;;;;;;-5.09;65.74;102125.31;1760921;79;21082;-55
2022/01/24 02:17:11;;;;;;;9.65;4.42;;;;;;;-5.12;65.61;102127.83;1715005;81;21147;-55
2022/01/24 02:24:33;;;;;;;9.93;4.85;;;;;;;-5.19;65.83;102128.17;1753779;79;21101;-55
2022/01/24 02:26:59;;;;;;;10.70;3.98;;;;;;;-5.21;65.82;102136.28;1759007;79;21136;-55
2022/01/24 02:29:46;;;;;;;8.58;4.08;;;;;;;-5.23;65.50;102139.22;1762893;79;21139;-55
2022/01/24 02:31:57;;;;;;;7.45;3.65;;;;;;;-5.28;65.56;102143.03;1760478;79;21094;-55
2022/01/24 02:34:38;;;;;;;9.90;4.72;;;;;;;-5.34;65.67;102134.38;1762741;79;21081;-55
2022/01/24 02:37:09;;;;;;;10.65;5.03;;;;;;;-5.39;65.90;102130.89;1731822;80;21051;-55
2022/01/24 02:39:49;;;;;;;9.13;5.03;;;;;;;-5.44;66.14;102129.11;1698482;81;21052;-55
2022/01/24 02:52:57;;;;;;;11.38;5.62;;;;;;;-5.49;66.61;102132.46;1765382;79;21066;-55
2022/01/24 02:55:24;;;;;;;10.82;5.47;;;;;;;-5.50;66.77;102130.72;1758558;79;21086;-54
2022/01/24 02:57:51;;;;;;;10.72;4.60;;;;;;;-5.52;66.68;102123.44;1771997;79;21070;-55
2022/01/24 03:00:17;;;;;;;10.88;6.17;;;;;;;-5.56;66.73;102131.51;1749049;80;21094;-55
2022/01/24 03:02:44;;;;;;;9.30;5.40;;;;;;;-5.57;66.94;102131.48;1767721;79;21550;-55
2022/01/24 03:05:11;;;;;;;13.22;7.08;;;;;;;-5.57;67.03;102134.05;1763697;80;21491;-54
2022/01/24 03:07:39;;;;;;;12.45;6.00;;;;;;;-5.64;67.08;102133.95;1769247;79;21131;-55
2022/01/24 03:10:13;;;;;;;10.95;6.12;;;;;;;-5.59;66.98;102136.59;1761758;79;21003;-55
2022/01/24 03:15:09;;;;;;;15.75;8.05;;;;;;;-5.55;66.76;102125.52;1737798;80;21027;-54
2022/01/24 03:17:36;;;;;;;12.47;6.35;;;;;;;-5.61;66.83;102114.77;1762928;79;21086;-55
2022/01/24 03:20:04;;;;;;;13.20;6.35;;;;;;;-5.61;66.81;102121.17;1738728;80;22026;-54
2022/01/24 03:22:32;;;;;;;9.43;5.05;;;;;;;-5.64;67.01;102117.70;1767790;80;21102;-54
2022/01/24 03:24:59;;;;;;;9.20;5.47;;;;;;;-5.61;66.90;102118.61;1766841;79;21121;-54
2022/01/24 03:27:25;;;;;;;13.18;6.62;;;;;;;-5.62;66.92;102129.70;1758163;79;21091;-54
2022/01/24 03:29:52;;;;;;;9.18;5.37;;;;;;;-5.62;66.79;102128.84;1750901;79;21094;-55
2022/01/24 03:32:19;;;;;;;14.87;6.92;;;;;;;-5.64;66.76;102139.08;1741026;80;21103;-55
2022/01/24 03:34:45;;;;;;;8.78;5.40;;;;;;;-5.64;66.87;102136.52;1746768;80;21040;-55
2022/01/24 03:37:12;;;;;;;10.43;4.87;;;;;;;-5.67;66.84;102134.32;1761250;79;21624;-55
2022/01/24 03:39:38;;;;;;;10.13;5.78;;;;;;;-5.67;66.60;102137.74;1761524;79;21102;-55
2022/01/24 03:42:05;;;;;;;11.78;5.15;;;;;;;-5.67;66.66;102131.33;1691854;82;21158;-55
2022/01/24 03:44:32;;;;;;;10.93;5.70;;;;;;;-5.67;66.65;102140.73;1698253;82;21133;-54
2022/01/24 03:49:45;;;;;;;8.08;4.25;;;;;;;-5.68;66.68;102146.69;1693304;83;21001;-54
2022/01/24 03:52:16;;;;;;;10.50;4.65;;;;;;;-5.60;66.66;102152.80;1742168;80;21101;-55
2022/01/24 03:54:43;;;;;;;9.48;4.83;;;;;;;-5.60;66.52;102157.53;1763494;79;21537;-55
2022/01/24 03:57:12;;;;;;;7.87;3.47;;;;;;;-5.62;66.49;102154.48;1769525;79;21226;-55
2022/01/24 03:59:38;;;;;;;10.43;4.50;;;;;;;-5.62;66.62;102150.64;1738949;79;21830;-55
2022/01/24 04:02:05;;;;;;;8.35;3.87;;;;;;;-5.61;66.72;102139.55;1743306;80;21098;-55
2022/01/24 04:04:31;;;;;;;8.60;4.33;;;;;;;-5.54;66.55;102140.08;1749406;79;21090;-54
2022/01/24 04:06:58;;;;;;;9.68;4.50;;;;;;;-5.53;66.67;102131.95;1736520;80;22670;-54
2022/01/24 04:09:25;;;;;;;8.15;4.58;;;;;;;-5.45;66.59;102136.78;1753365;79;21468;-54
2022/01/24 04:11:55;;;;;;;9.90;4.92;;;;;;;-5.44;66.58;102131.67;1729602;80;21043;-54
2022/01/24 04:14:34;;;;;;;10.50;6.25;;;;;;;-5.47;66.64;102132.05;1742921;80;21065;-53
2022/01/24 04:17:22;;;;;;;11.43;6.17;;;;;;;-5.48;66.66;102124.79;1750890;79;21742;-55
2022/01/24 04:22:15;;;;;;;8.75;4.70;;;;;;;-5.45;66.96;102111.98;1756461;79;21696;-54
2022/01/24 04:24:43;;;;;;;7.08;4.55;;;;;;;-5.46;66.97;102108.99;1759105;79;21108;-54
2022/01/24 04:27:10;;;;;;;12.10;6.45;;;;;;;-5.49;66.92;102119.20;1753891;79;21066;-53
2022/01/24 04:29:37;;;;;;;9.48;5.00;;;;;;;-5.55;67.16;102125.95;1755030;79;22231;-54
2022/01/24 04:32:05;;;;;;;11.00;6.28;;;;;;;-5.47;67.07;102125.21;1753181;79;21015;-53
2022/01/24 04:34:32;;;;;;;9.45;5.65;;;;;;;-5.46;67.03;102129.95;1755471;79;21780;-53
2022/01/24 04:36:59;;;;;;;10.95;6.03;;;;;;;-5.45;66.86;102135.50;1719235;81;21059;-54
2022/01/24 04:39:26;;;;;;;8.73;5.40;;;;;;;-5.49;67.01;102136.31;1765169;79;21561;-53
2022/01/24 04:41:55;;;;;;;9.88;3.85;;;;;;;-5.49;66.93;102142.30;1770042;79;21086;-54
2022/01/24 04:55:00;;;;;;;11.43;6.20;;;;;;;-5.45;66.71;102145.76;1758330;79;21020;-54
2022/01/24 04:57:27;;;;;;;11.28;6.60;;;;;;;-5.44;66.81;102152.20;1767676;79;21082;-55
2022/01/24 04:59:57;;;;;;;9.83;5.05;;;;;;;-5.43;66.77;102156.50;1742681;79;21273;-55
2022/01/24 05:02:24;;;;;;;7.00;4.47;;;;;;;-5.41;66.81;102163.80;1763995;79;21159;-56
2022/01/24 05:04:52;;;;;;;9.95;4.60;;;;;;;-5.37;66.90;102169.83;1753197;79;21588;-55
2022/01/24 05:07:19;;;;;;;10.72;5.97;;;;;;;-5.32;66.89;102160.92;1767969;79;21054;-53
2022/01/24 05:10:00;;;;;;;9.13;4.70;;;;;;;-5.33;66.30;102161.35;1759677;79;21518;-54
2022/01/24 05:25:56;;;;;;;16.45;7.58;;;;;;;-5.31;66.11;102178.02;1753826;79;21315;-54
2022/01/24 05:28:22;;;;;;;11.83;6.90;;;;;;;-5.35;66.12;102176.27;1713662;80;21565;-54
2022/01/24 05:30:49;;;;;;;11.63;6.25;;;;;;;-5.38;66.27;102174.50;1732631;80;21079;-54
2022/01/24 05:33:16;;;;;;;12.65;6.53;;;;;;;-5.39;66.24;102174.52;1732833;80;21020;-54
2022/01/24 05:35:42;;;;;;;8.98;5.60;;;;;;;-5.37;66.23;102177.95;1738592;80;21601;-54
2022/01/24 05:38:10;;;;;;;14.63;6.78;;;;;;;-5.37;66.12;102185.66;1731716;80;22411;-56
2022/01/24 05:53:41;;;;;;;8.38;4.62;;;;;;;-4.02;62.09;102178.69;1811601;77;22140;-58
2022/01/24 05:56:08;;;;;;;8.93;4.15;;;;;;;-4.00;61.68;102192.42;1814542;76;21120;-55
2022/01/24 05:58:34;;;;;;;7.97;3.77;;;;;;;-4.15;62.17;102181.59;1816992;76;21467;-56
2022/01/24 06:01:01;;;;;;;6.95;4.05;;;;;;;-4.29;61.94;102186.56;1815984;77;21002;-56
2022/01/24 06:03:28;;;;;;;8.28;3.65;;;;;;;-4.50;61.63;102186.78;1788351;77;21146;-56
2022/01/24 06:05:54;;;;;;;8.88;3.72;;;;;;;-4.65;62.21;102194.75;1784452;77;21497;-55
2022/01/24 06:08:21;;;;;;;9.50;3.83;;;;;;;-4.77;62.74;102192.89;1820229;77;21125;-56
2022/01/24 06:10:48;;;;;;;7.33;4.03;;;;;;;-4.83;62.86;102198.80;1814084;77;21935;-55
2022/01/24 06:13:17;;;;;;;8.03;3.87;;;;;;;-4.94;63.42;102209.34;1818213;76;21553;-56
2022/01/24 06:15:43;;;;;;;12.98;6.10;;;;;;;-5.00;63.62;102199.01;1816900;76;21729;-52
2022/01/24 06:18:10;;;;;;;10.88;5.60;;;;;;;-5.07;63.60;102204.48;1783330;78;21525;-54
2022/01/24 06:20:36;;;;;;;11.80;5.83;;;;;;;-5.15;63.83;102198.38;1788007;78;21642;-53
2022/01/24 06:23:03;;;;;;;13.62;7.15;;;;;;;-5.22;63.99;102199.55;1814039;77;21471;-55
2022/01/24 06:25:29;;;;;;;11.48;6.55;;;;;;;-5.33;64.61;102195.99;1789989;77;21039;-54
2022/01/24 06:27:56;;;;;;;13.05;6.00;;;;;;;-5.28;64.70;102201.17;1786076;77;21074;-54
2022/01/24 06:30:22;;;;;;;11.63;6.25;;;;;;;-5.32;64.62;102203.27;1811792;77;21113;-54
2022/01/24 06:32:49;;;;;;;10.55;5.58;;;;;;;-5.36;64.69;102202.75;1782075;77;21106;-55
2022/01/24 06:35:15;;;;;;;11.40;6.20;;;;;;;-5.36;64.68;102204.03;1819910;77;21209;-55
2022/01/24 06:37:42;;;;;;;14.83;6.17;;;;;;;-5.43;64.77;102203.97;1790831;78;21038;-54
2022/01/24 06:40:10;;;;;;;11.97;6.15;;;;;;;-5.40;64.80;102214.67;1786888;77;21151;-54
2022/01/24 06:42:38;;;;;;;13.62;6.28;;;;;;;-5.41;64.88;102212.54;1812646;77;21050;-54
2022/01/24 06:45:06;;;;;;;12.03;6.30;;;;;;;-5.36;65.00;102218.15;1816311;77;21117;-54
2022/01/24 06:47:32;;;;;;;11.53;5.90;;;;;;;-5.31;64.88;102215.23;1775205;77;21061;-55
2022/01/24 06:49:59;;;;;;;12.82;4.80;;;;;;;-5.36;64.64;102213.02;1818749;76;21018;-54
2022/01/24 06:52:25;;;;;;;13.45;7.08;;;;;;;-5.34;64.80;102213.50;1811375;77;21102;-55
2022/01/24 06:54:54;;;;;;;12.47;5.47;;;;;;;-5.28;64.63;102211.44;1819239;77;21047;-54
2022/01/24 06:57:21;;;;;;;13.88;6.00;;;;;;;-5.22;64.52;102215.38;1828981;77;21019;-56
2022/01/24 06:59:47;;;;;;;17.12;6.33;;;;;;;-5.18;64.45;102210.72;1821192;77;21192;-55
2022/01/24 07:02:21;;;;;;;11.90;6.60;;;;;;;-5.15;64.59;102205.64;1818058;77;21069;-56
2022/01/24 07:04:47;;;;;;;14.03;6.00;;;;;;;-5.13;64.57;102210.37;1814291;77;21094;-54
2022/01/24 07:07:14;;;;;;;12.03;6.58;;;;;;;-5.08;64.47;102207.47;1819326;77;20948;-55
2022/01/24 07:09:41;;;;;;;11.45;5.58;;;;;;;-5.06;64.56;102205.78;1781466;77;21074;-55
2022/01/24 07:12:09;;;;;;;10.63;5.72;;;;;;;-5.00;64.37;102205.42;1823747;77;21223;-55
2022/01/24 07:14:36;;;;;;;11.28;5.58;;;;;;;-5.00;65.71;102196.01;1822695;77;21016;-55
2022/01/24 07:17:12;;;;;;;8.70;4.97;;;;;;;-4.94;66.18;102197.78;1783911;78;21102;-56
2022/01/24 07:19:32;;;;;;;12.13;6.15;;;;;;;-4.89;65.66;102200.02;1815562;77;20995;-55
2022/01/24 07:22:02;;;;;;;13.62;5.10;;;;;;;-4.87;65.65;102195.76;1819760;77;21091;-54
2022/01/24 07:24:29;;;;;;;11.12;5.90;;;;;;;-4.76;65.43;102190.75;1820812;77;21129;-54
2022/01/24 07:26:55;;;;;;;16.50;6.58;;;;;;;-4.81;64.87;102180.84;1782349;77;21105;-55
2022/01/24 07:29:22;;;;;;;18.17;6.17;;;;;;;-4.78;64.90;102188.16;1782210;77;21078;-72
2022/01/24 07:31:49;;;;;;;12.35;5.25;;;;;;;-4.73;65.04;102181.37;1789133;78;21060;-73
2022/01/24 07:34:16;;;;;;;8.55;4.90;;;;;;;-4.68;64.83;102177.14;1783981;78;21028;-71
2022/01/24 07:36:43;;;;;;;8.38;4.83;;;;;;;-4.67;64.46;102184.45;1814902;77;21134;-71
2022/01/24 07:39:10;;;;;;;11.28;5.45;;;;;;;-4.62;64.57;102185.77;1814519;77;21051;-71
2022/01/24 07:41:43;;;;;;;11.45;6.17;;;;;;;-4.61;64.27;102183.22;1806096;77;21025;-65
2022/01/24 07:44:05;;;;;;;12.15;5.85;;;;;;;-4.62;64.16;102178.95;1787203;78;21476;-65
2022/01/24 07:46:31;;;;;;;11.90;6.40;;;;;;;-4.56;63.93;102180.28;1816200;77;21616;-73
2022/01/24 07:48:58;;;;;;;10.90;5.40;;;;;;;-4.59;63.89;102177.70;1818639;77;22444;-72
2022/01/24 07:51:25;;;;;;;13.48;5.78;;;;;;;-4.56;63.87;102178.14;1816487;77;21781;-62
2022/01/24 07:53:51;;;;;;;10.48;5.42;;;;;;;-4.55;63.86;102176.88;1817633;77;21037;-68
2022/01/24 07:56:18;;;;;;;8.88;5.10;;;;;;;-4.53;63.87;102178.18;1821975;77;21058;-69
2022/01/24 07:58:44;;;;;;;11.18;6.67;;;;;;;-4.51;63.91;102173.91;1787553;78;21047;-74
2022/01/24 08:01:12;;;;;;;14.13;6.03;;;;;;;-4.48;63.85;102173.52;1746314;79;21046;-72
2022/01/24 08:03:39;;;;;;;10.60;5.35;;;;;;;-4.47;64.06;102170.55;1715859;81;21103;-73
2022/01/24 08:06:05;;;;;;;14.98;6.70;;;;;;;-4.42;63.79;102175.72;1769894;80;21109;-62
2022/01/24 08:08:33;;;;;;;12.95;5.92;;;;;;;-4.38;64.10;102170.63;1768922;80;21093;-63
2022/01/24 08:11:00;;;;;;;12.30;6.60;;;;;;;-4.36;63.85;102172.79;1768883;80;21116;-69
2022/01/24 08:13:28;;;;;;;12.93;6.62;;;;;;;-4.28;63.83;102169.46;1765439;79;21067;-72
2022/01/24 08:15:54;;;;;;;15.85;5.70;;;;;;;-4.23;63.75;102181.50;1763540;79;21728;-71
2022/01/24 08:18:21;;;;;;;11.08;6.15;;;;;;;-4.17;63.54;102176.83;1766878;80;21093;-71
2022/01/24 08:20:47;;;;;;;13.65;6.90;;;;;;;-4.10;63.72;102176.06;1776572;79;21524;-75
2022/01/24 08:23:16;;;;;;;13.20;6.35;;;;;;;-4.04;63.53;102175.25;1772410;80;21089;-77
2022/01/24 08:25:43;;;;;;;14.95;6.70;;;;;;;-3.98;63.27;102168.45;1742786;80;21229;-75
2022/01/24 08:28:09;;;;;;;14.75;7.58;;;;;;;-3.95;62.85;102162.45;1772323;79;21031;-80
2022/01/24 08:30:36;;;;;;;10.30;5.17;;;;;;;-3.94;62.54;102163.76;1740376;79;21133;-75
2022/01/24 08:33:03;;;;;;;14.13;7.10;;;;;;;-3.93;62.41;102170.64;1759746;80;21094;-74
2022/01/24 08:35:30;;;;;;;12.20;6.17;;;;;;;-3.89;62.73;102166.81;1749423;80;21082;-73
2022/01/24 08:37:56;;;;;;;14.50;6.10;;;;;;;-3.86;62.37;102165.56;1728725;81;22325;-77
2022/01/24 08:40:25;;;;;;;9.65;5.33;;;;;;;-3.83;62.03;102167.73;1759814;79;21697;-75
2022/01/24 08:43:00;;;;;;;11.65;6.08;;;;;;;-3.82;62.14;102162.16;1754743;80;21529;-74
2022/01/24 08:45:46;;;;;;;13.68;6.58;;;;;;;-3.80;61.80;102152.33;1748490;80;21578;-71
2022/01/24 08:48:10;;;;;;;14.53;7.70;;;;;;;-3.79;61.67;102153.17;1760624;79;21654;-73
2022/01/24 08:50:36;;;;;;;14.03;6.00;;;;;;;-3.80;61.55;102144.61;1766425;80;21102;-74
2022/01/24 08:53:04;;;;;;;12.60;7.72;;;;;;;-3.70;61.63;102151.94;1728407;80;21045;-76
2022/01/24 08:55:32;;;;;;;14.30;7.30;;;;;;;-3.72;60.79;102153.66;1770980;79;22173;-73
2022/01/24 08:57:59;;;;;;;12.33;6.72;;;;;;;-3.70;60.89;102154.95;1738509;79;21093;-76
2022/01/24 09:00:26;;;;;;;10.30;6.15;;;;;;;-3.72;60.88;102147.66;1768218;79;21090;-74
2022/01/24 09:02:53;;;;;;;18.25;9.03;;;;;;;-3.70;60.95;102151.94;1768015;79;21182;-70
2022/01/24 09:05:22;;;;;;;12.95;6.80;;;;;;;-3.73;60.89;102153.23;1762038;79;21064;-71
2022/01/24 09:07:48;;;;;;;12.78;5.75;;;;;;;-3.65;60.55;102148.13;1734678;79;21521;-75
2022/01/24 09:10:16;;;;;;;15.38;6.50;;;;;;;-3.66;60.85;102142.13;1735968;80;21651;-73
2022/01/24 09:12:42;;;;;;;11.35;5.67;;;;;;;-3.68;60.57;102141.27;1740713;80;21120;-72
2022/01/24 09:15:09;;;;;;;12.88;7.40;;;;;;;-3.64;60.68;102143.43;1765911;79;21090;-73
2022/01/24 09:17:39;;;;;;;12.95;7.33;;;;;;;-3.59;60.72;102135.31;1767352;79;21097;-68
2022/01/24 09:20:11;;;;;;;13.50;7.22;;;;;;;-3.60;60.76;102135.75;1770618;79;21060;-66
2022/01/24 09:22:38;;;;;;;15.05;7.12;;;;;;;-3.59;60.42;102124.59;1764169;79;21070;-71
2022/01/24 09:25:06;;;;;;;14.70;8.23;;;;;;;-3.50;60.28;102134.51;1763510;79;21568;-75
2022/01/24 09:27:33;;;;;;;12.40;7.08;;;;;;;-3.47;60.61;102129.39;1762127;79;21798;-72
2022/01/24 09:30:00;;;;;;;14.53;6.72;;;;;;;-3.46;59.88;102126.83;1762351;79;21094;-72
2022/01/24 09:32:27;;;;;;;16.27;7.92;;;;;;;-3.43;59.99;102128.54;1763439;79;21077;-68
2022/01/24 09:34:54;;;;;;;11.48;6.15;;;;;;;-3.42;60.11;102127.70;1767863;79;21046;-74
2022/01/24 09:37:23;;;;;;;12.35;6.67;;;;;;;-3.42;59.95;102122.55;1766074;79;21049;-67
2022/01/24 09:39:52;;;;;;;13.85;7.25;;;;;;;-3.41;60.21;102125.14;1739346;79;21164;-76
2022/01/24 09:42:18;;;;;;;16.02;7.40;;;;;;;-3.36;60.56;102132.89;1772372;79;21070;-75
2022/01/24 09:44:45;;;;;;;12.63;6.60;;;;;;;-3.29;59.75;102120.92;1740775;80;21533;-75
2022/01/24 09:47:15;;;;;;;13.30;6.90;;;;;;;-3.22;59.41;102124.80;1773423;78;21302;-74
2022/01/24 09:49:42;;;;;;;12.98;7.08;;;;;;;-3.22;59.53;102122.23;1773607;79;21534;-77
2022/01/24 09:52:08;;;;;;;14.35;7.28;;;;;;;-3.26;59.29;102104.17;1725285;81;21205;-73
2022/01/24 09:54:35;;;;;;;13.85;6.97;;;;;;;-3.25;59.22;102116.20;1752852;80;21094;-72
2022/01/24 09:57:02;;;;;;;13.18;5.72;;;;;;;-3.25;58.88;102098.19;1755962;80;21098;-74
2022/01/24 09:59:29;;;;;;;14.25;7.15;;;;;;;-3.29;59.00;102108.90;1753321;80;21050;-73
2022/01/24 10:01:56;;;;;;;13.08;7.08;;;;;;;-3.33;59.43;102100.70;1753079;79;21172;-71
2022/01/24 10:04:25;;;;;;;14.83;7.42;;;;;;;-3.32;59.50;102104.16;1766330;79;21197;-70
2022/01/24 10:07:07;;;;;;;13.43;6.90;;;;;;;-3.28;59.53;102096.88;1755433;79;22555;-73
2022/01/24 10:09:51;;;;;;;11.18;6.65;;;;;;;-3.27;59.74;102094.75;1754121;79;21092;-76
2022/01/24 10:17:44;;;;;;;13.05;7.15;;;;;;;-3.11;60.11;102093.09;1756266;80;21816;-70
2022/01/24 10:20:27;;;;;;;13.50;7.03;;;;;;;-3.11;59.23;102093.97;1760762;80;21074;-72
2022/01/24 10:23:10;;;;;;;13.43;6.85;;;;;;;-3.10;59.33;102087.09;1759014;80;22103;-74
2022/01/24 10:25:55;;;;;;;12.43;7.40;;;;;;;-3.07;59.57;102089.69;1756474;79;21122;-70
2022/01/24 10:28:30;;;;;;;13.40;6.80;;;;;;;-3.08;59.47;102087.52;1760968;80;21062;-69
2022/01/24 10:31:07;;;;;;;14.43;6.37;;;;;;;-3.01;59.45;102091.86;1751334;80;22973;-73
2022/01/24 10:33:59;;;;;;;13.03;6.30;;;;;;;-3.00;59.47;102081.97;1729225;80;21778;-73
2022/01/24 10:36:47;;;;;;;12.10;6.37;;;;;;;-2.96;59.20;102084.56;1725351;80;21443;-74
2022/01/24 10:39:32;;;;;;;9.35;5.67;;;;;;;-2.92;58.76;102079.44;1763428;80;21092;-63
2022/01/24 10:45:02;;;;;;;12.43;6.12;;;;;;;-2.93;58.89;102067.40;1759185;80;21198;-67
2022/01/24 10:47:32;;;;;;;11.30;7.00;;;;;;;-2.92;59.08;102065.27;1763162;80;21050;-76
2022/01/24 10:50:01;;;;;;;14.83;7.40;;;;;;;-2.86;59.09;102070.45;1764050;80;21078;-71
2022/01/24 10:52:32;;;;;;;14.80;7.28;;;;;;;-2.81;59.30;102065.28;1759684;80;21094;-73
2022/01/24 10:55:21;;;;;;;11.80;6.65;;;;;;;-2.89;58.83;102057.55;1760567;80;21092;-74
2022/01/24 10:57:54;;;;;;;15.98;8.08;;;;;;;-2.80;58.65;102062.71;1755572;80;21073;-69
2022/01/24 11:00:26;;;;;;;12.00;8.10;;;;;;;-2.77;58.86;102065.73;1756967;80;21061;-64
2022/01/24 11:02:55;;;;;;;15.93;7.87;;;;;;;-2.69;58.40;102055.43;1725684;80;21070;-63
2022/01/24 11:05:26;;;;;;;12.70;8.08;;;;;;;-2.65;58.37;102061.89;1764686;80;21482;-66
2022/01/24 11:07:57;;;;;;;13.38;7.08;;;;;;;-2.58;58.11;102055.03;1759267;80;21141;-67
2022/01/24 11:10:26;;;;;;;13.05;6.92;;;;;;;-2.57;56.88;102046.45;1759460;80;21111;-68
2022/01/24 11:12:52;;;;;;;16.15;7.58;;;;;;;-2.52;57.15;102043.45;1759169;80;21577;-63
2022/01/24 11:15:21;;;;;;;13.93;7.65;;;;;;;-2.45;57.00;102040.45;1757632;79;21567;-61
2022/01/24 11:17:47;;;;;;;13.48;7.35;;;;;;;-2.48;56.04;102030.13;1760187;80;21062;-66
2022/01/24 11:20:17;;;;;;;16.65;9.50;;;;;;;-2.44;56.36;102025.39;1760012;80;21074;-63
2022/01/24 11:22:52;;;;;;;16.57;8.98;;;;;;;-2.40;55.99;102030.11;1757889;79;21057;-61
2022/01/24 11:25:17;;;;;;;15.20;8.30;;;;;;;-2.35;55.75;102019.39;1757573;80;21046;-67
2022/01/24 11:27:47;;;;;;;18.15;10.13;;;;;;;-2.38;55.43;102015.09;1762034;80;21304;-73
2022/01/24 11:30:23;;;;;;;19.57;11.12;;;;;;;-2.41;57.07;102020.67;1763128;79;21094;-69
2022/01/24 11:32:58;;;;;;;24.37;14.25;;;;;;;-2.40;57.66;102019.80;1759500;79;21156;-73
2022/01/24 11:35:43;;;;;;;15.50;8.53;;;;;;;-2.33;57.53;102027.98;1727502;80;21170;-75
2022/01/24 11:38:37;;;;;;;19.85;9.78;;;;;;;-2.35;57.81;102015.53;1758263;79;21107;-72
2022/01/24 11:41:20;;;;;;;14.28;7.58;;;;;;;-2.34;58.10;102019.81;1760485;80;21392;-69
2022/01/24 11:43:45;;;;;;;14.07;7.40;;;;;;;-2.38;57.64;102018.95;1758402;80;21094;-69
2022/01/24 11:46:52;;;;;;;12.78;7.17;;;;;;;-2.34;57.88;102015.94;1732028;81;21092;-60
2022/01/24 11:49:24;;;;;;;17.05;8.50;;;;;;;-2.30;57.87;102007.36;1761886;80;23358;-63
2022/01/24 11:52:07;;;;;;;15.80;8.13;;;;;;;-2.43;57.35;102008.63;1761144;79;21086;-69
2022/01/24 11:57:28;;;;;;;14.20;6.72;;;;;;;-2.37;57.73;102003.92;1757236;79;21764;-69
2022/01/24 12:00:10;;;;;;;17.02;8.38;;;;;;;-2.32;57.49;102015.50;1728029;81;21063;-68
2022/01/24 12:02:52;;;;;;;12.07;7.22;;;;;;;-2.12;56.38;101996.14;1731417;81;21878;-67
2022/01/24 12:05:30;;;;;;;14.85;7.83;;;;;;;-2.17;56.51;102014.64;1727618;80;21042;-60
2022/01/24 12:08:04;;;;;;;16.93;7.92;;;;;;;-2.13;56.48;102012.50;1759949;79;21073;-63
2022/01/24 12:10:36;;;;;;;18.52;10.28;;;;;;;-2.16;56.62;102017.66;1761088;79;21098;-76
2022/01/24 12:13:19;;;;;;;17.37;7.22;;;;;;;-2.26;56.69;102020.66;1760940;79;21027;-69
2022/01/24 12:15:52;;;;;;;16.73;6.90;;;;;;;-2.28;56.69;102022.39;1727400;80;21895;-64
2022/01/24 12:18:28;;;;;;;22.30;13.85;;;;;;;-2.23;56.93;102028.41;1760337;80;21522;-63
2022/01/24 12:21:04;;;;;;;16.85;9.98;;;;;;;-2.26;56.69;102018.94;1761513;80;21030;-65
2022/01/24 12:23:43;;;;;;;16.55;9.73;;;;;;;-2.25;56.74;102019.38;1764237;80;21110;-63
2022/01/24 12:26:14;;;;;;;11.33;6.75;;;;;;;-2.26;57.04;102019.38;1745445;79;21576;-66
2022/01/24 12:28:48;;;;;;;32.25;17.67;;;;;;;-2.10;57.19;102024.08;1757385;80;21155;-64
2022/01/24 12:31:42;;;;;;;21.77;14.20;;;;;;;-2.09;56.76;102012.91;1757037;80;21414;-66
2022/01/24 12:34:18;;;;;;;20.77;10.85;;;;;;;-2.04;56.62;102013.77;1755438;80;21581;-63
2022/01/24 12:37:00;;;;;;;18.60;9.40;;;;;;;-1.97;56.26;102009.45;1753247;80;21070;-67
2022/01/24 12:39:43;;;;;;;13.25;7.72;;;;;;;-1.99;56.15;102026.66;1723008;81;21457;-68
2022/01/24 12:42:15;;;;;;;13.70;6.65;;;;;;;-2.05;56.01;102019.80;1756722;80;21136;-65
2022/01/24 12:47:26;;;;;;;11.50;6.12;;;;;;;-1.95;56.02;102020.22;1759752;79;21114;-68
2022/01/24 12:49:54;;;;;;;13.43;8.33;;;;;;;-1.93;56.06;102030.09;1758694;80;21135;-66
2022/01/24 12:52:25;;;;;;;13.62;6.28;;;;;;;-1.78;56.18;102039.53;1760159;80;20975;-70
2022/01/24 12:54:55;;;;;;;20.43;8.05;;;;;;;-1.64;56.04;102033.47;1724808;81;21090;-67
2022/01/24 12:57:29;;;;;;;12.45;7.05;;;;;;;-1.56;55.84;102028.70;1728707;80;21616;-63
2022/01/24 13:00:03;;;;;;;10.63;6.75;;;;;;;-0.17;52.50;102029.14;1761959;79;21050;-68
2022/01/24 13:02:32;;;;;;;13.53;7.50;;;;;;;-0.17;52.50;102029.14;1754726;79;21118;-69
2022/01/24 13:05:15;;;;;;;14.95;7.90;;;;;;;0.63;49.62;102024.88;1757962;80;21630;-68
2022/01/24 13:07:52;;;;;;;17.05;8.55;;;;;;;1.21;48.23;102022.80;1760107;79;22265;-68
2022/01/24 13:10:27;;;;;;;11.90;6.25;;;;;;;1.57;46.81;102022.25;1751880;80;20996;-67
2022/01/24 13:13:09;;;;;;;12.57;7.20;;;;;;;1.62;46.98;102032.95;1758225;79;21521;-66
2022/01/24 13:21:19;;;;;;;12.78;6.87;;;;;;;2.15;46.06;102025.55;1764166;79;21070;-70
2022/01/24 13:23:53;;;;;;;9.28;5.62;;;;;;;2.15;46.06;102025.55;1764915;80;21063;-68
2022/01/24 13:26:20;;;;;;;11.25;6.12;;;;;;;2.32;46.00;102023.52;1760710;79;21103;-67
2022/01/24 13:28:46;;;;;;;11.63;6.87;;;;;;;2.55;45.60;102029.53;1759888;80;21105;-69
2022/01/24 13:31:14;;;;;;;16.90;6.70;;;;;;;2.76;44.47;102036.05;1760900;79;21569;-72
2022/01/24 13:33:44;;;;;;;11.93;6.28;;;;;;;2.38;44.80;102027.27;1760952;80;21135;-70
2022/01/24 13:36:10;;;;;;;13.62;7.50;;;;;;;1.76;45.89;102034.02;1763373;80;21066;-69
2022/01/24 13:38:40;;;;;;;11.60;6.72;;;;;;;1.16;46.97;102032.38;1761700;79;21112;-68
2022/01/24 13:41:10;;;;;;;13.00;6.87;;;;;;;0.62;47.93;102032.21;1760729;79;21099;-71
2022/01/24 13:44:01;;;;;;;13.70;6.55;;;;;;;0.07;48.98;102026.78;1763221;80;21078;-69
2022/01/24 13:46:40;;;;;;;12.05;6.00;;;;;;;-0.36;49.92;102039.25;1760028;79;21106;-70
2022/01/24 13:49:13;;;;;;;17.87;6.62;;;;;;;-0.76;50.31;102039.96;1761708;80;21541;-71
2022/01/24 13:51:49;;;;;;;13.45;6.33;;;;;;;-1.04;50.94;102044.42;1761442;80;21082;-70